Flight Track Log - Related Links

Times and Time Zones

All times are in EDT time to prevent confusion due to time zone crossing. See the DAL1981 flight status page for this flight to view local times or setup timezone preferences in your user account.

Time Position Orientation Groundspeed Altitude Reporting Facility
EDT Latitude Longitude Course Direction KTS MPH feet Rate Location/Type
Mon 03:58:52 PM 38.6667 -121.5667 76° East 161 185 1,500  Level Northern Cal TRACON
Mon 03:59:52 PM 38.6500 -121.4833 104° East 256 295 2,700 2,150 Climbing Northern Cal TRACON
Mon 04:00:00 PM 38.4985 -121.2442 80° East  Level FlightAware Approximate
Mon 04:00:52 PM 38.6333 -121.3833 102° East 266 306 5,800  Level Northern Cal TRACON
Mon 04:01:00 PM 38.5367 -121.0832 76° East  Level FlightAware Approximate
Mon 04:01:58 PM 38.6333 -121.2667 90° East 299 344 8,200  Level Northern Cal TRACON
Mon 04:02:00 PM 38.5664 -120.9187 78° East  Level FlightAware Approximate
Mon 04:03:00 PM 38.5939 -120.7534 78° East  Level FlightAware Approximate
Mon 04:04:00 PM 38.6255 -120.5894 76° East  Level FlightAware Approximate
Mon 04:04:19 PM 38.6575 -121.0150 83° East 321 369 13,000  Level Oakland Center
Mon 04:05:20 PM 38.6669 -120.8833 85° East 366 421 14,700 1,707 Climbing Oakland Center
Mon 04:06:22 PM 38.6775 -120.7481 84° East 379 436 16,500 1,951 Climbing Oakland Center
Mon 04:07:23 PM 38.6889 -120.6128 84° East 381 438 18,700 1,328 Climbing Oakland Center
Mon 04:08:24 PM 38.7575 -120.5014 52° Northeast 398 458 19,200 488 Climbing Oakland Center
Mon 04:09:26 PM 38.8428 -120.3847 47° Northeast 435 501 19,700 878 Climbing Oakland Center
Mon 04:10:27 PM 38.9322 -120.2611 47° Northeast 467 537 21,000 1,475 Climbing Oakland Center
Mon 04:11:28 PM 39.0369 -120.1189 47° Northeast 471 542 22,700 1,366 Climbing Oakland Center
Mon 04:12:30 PM 39.1267 -119.9928 47° Northeast 475 547 23,800 1,073 Climbing Oakland Center
Mon 04:13:31 PM 39.2206 -119.8619 47° Northeast 490 564 24,900 927 Climbing Oakland Center
Mon 04:14:33 PM 39.3175 -119.7322 46° Northeast 498 573 25,700 829 Climbing Oakland Center
Mon 04:15:34 PM 39.4133 -119.5964 48° Northeast 506 582 26,600 787 Climbing Oakland Center
Mon 04:16:35 PM 39.5100 -119.4600 47° Northeast 511 588 27,300 732 Climbing Oakland Center
Mon 04:17:37 PM 39.6072 -119.3211 48° Northeast 515 593 28,100 878 Climbing Oakland Center
Mon 04:18:38 PM 39.7056 -119.1811 48° Northeast 518 596 29,100 1,623 Climbing Oakland Center
Mon 04:19:39 PM 39.8031 -119.0444 47° Northeast 511 588 31,400 1,463 Climbing Oakland Center
Mon 04:20:41 PM 39.8914 -118.9156 48° Northeast 481 554 32,100 439 Climbing Oakland Center
Mon 04:21:42 PM 39.9831 -118.7836 48° Northeast 485 558 32,300 344 Climbing Oakland Center
Mon 04:22:43 PM 40.0919 -118.6153 50° Northeast 501 577 32,800 443 Climbing Oakland Center
Mon 04:23:44 PM 40.1594 -118.4542 61° Northeast 504 580 33,200 336 Climbing Oakland Center
Mon 04:24:30 PM 40.1928 -118.3311 70° East 509 586 33,400 333 Climbing Salt Lake Center
Mon 04:25:32 PM 40.2397 -118.1633 70° East 513 590 33,800 488 Climbing Salt Lake Center
Mon 04:26:33 PM 40.2919 -117.9653 71° East 514 592 34,400 488 Climbing Salt Lake Center
Mon 04:27:35 PM 40.3381 -117.7964 70° East 515 593 34,800 290 Climbing Salt Lake Center
Mon 04:28:37 PM 40.3911 -117.6000 70° East 511 588 35,000 98 Climbing Salt Lake Center
Mon 04:29:38 PM 40.4425 -117.4306 68° East 518 596 35,000  Level Salt Lake Center
Mon 04:30:40 PM 40.4922 -117.2603 69° East 519 597 35,000  Level Salt Lake Center
Mon 04:31:42 PM 40.5500 -117.0631 69° East 512 589 35,000  Level Salt Lake Center
Mon 04:32:43 PM 40.5992 -116.8947 69° East 508 585 35,000  Level Salt Lake Center
Mon 04:33:45 PM 40.6475 -116.7258 69° East 507 583 35,000  Level Salt Lake Center
Mon 04:34:47 PM 40.7028 -116.5308 69° East 508 585 35,000  Level Salt Lake Center
Mon 04:35:49 PM 40.7494 -116.3619 70° East 510 587 35,000  Level Salt Lake Center
Mon 04:36:50 PM 40.8064 -116.1667 69° East 510 587 35,000  Level Salt Lake Center
Mon 04:37:52 PM 40.8536 -115.9983 70° East 509 586 35,000  Level Salt Lake Center
Mon 04:38:54 PM 40.8994 -115.8317 70° East 506 582 35,000  Level Salt Lake Center
Mon 04:39:55 PM 40.9528 -115.6364 70° East 505 581 35,000  Level Salt Lake Center
Mon 04:40:57 PM 40.9997 -115.4694 70° East 505 581 35,000  Level Salt Lake Center
Mon 04:41:59 PM 41.0522 -115.2719 71° East 508 585 35,000  Level Salt Lake Center
Mon 04:43:00 PM 41.0986 -115.1025 70° East 510 587 35,000  Level Salt Lake Center
Mon 04:44:02 PM 41.1519 -114.9033 70° East 513 590 35,000  Level Salt Lake Center
Mon 04:45:04 PM 41.1939 -114.7425 71° East 512 589 35,000 -341 Level Salt Lake Center
Mon 04:46:05 PM 41.2406 -114.5650 71° East 510 587 34,300 -927 Descending Salt Lake Center
Mon 04:47:07 PM 41.2956 -114.3500 71° East 514 592 33,100 -1,016 Descending Salt Lake Center
Mon 04:48:09 PM 41.3436 -114.1722 70° East 512 589 32,200 -927 Descending Salt Lake Center
Mon 04:49:10 PM 41.3878 -113.9936 72° East 509 586 31,200 -585 Descending Salt Lake Center
Mon 04:50:12 PM 41.4331 -113.8175 71° East 505 581 31,000 -97 Descending Salt Lake Center
Mon 04:51:14 PM 41.4781 -113.6394 71° East 506 582 31,000  Level Salt Lake Center
Mon 04:52:15 PM 41.5242 -113.4619 71° East 507 583 31,000  Level Salt Lake Center
Mon 04:53:17 PM 41.5678 -113.2847 72° East 505 581 31,000  Level Salt Lake Center
Mon 04:54:18 PM 41.6128 -113.1056 71° East 508 585 31,000  Level Salt Lake Center
Mon 04:55:20 PM 41.6658 -112.8906 72° East 509 586 31,000  Level Salt Lake Center
Mon 04:56:22 PM 41.7097 -112.7106 72° East 509 586 31,000  Level Salt Lake Center
Mon 04:57:24 PM 41.7522 -112.5308 72° East 506 582 31,000  Level Salt Lake Center
Mon 04:58:25 PM 41.7964 -112.3486 72° East 511 588 31,000  Level Salt Lake Center
Mon 04:59:27 PM 41.8389 -112.1694 72° East 507 583 31,000  Level Salt Lake Center
Mon 05:00:29 PM 41.8814 -111.9886 72° East 506 582 31,000  Level Salt Lake Center
Mon 05:01:30 PM 41.9256 -111.8061 72° East 512 589 31,000  Level Salt Lake Center
Mon 05:02:32 PM 41.9678 -111.6267 72° East 506 582 31,000  Level Salt Lake Center
Mon 05:03:34 PM 42.0092 -111.4456 73° East 507 583 31,000  Level Salt Lake Center
Mon 05:04:35 PM 42.0594 -111.2283 73° East 507 583 31,000  Level Salt Lake Center
Mon 05:05:37 PM 42.1003 -111.0461 73° East 508 585 31,000  Level Salt Lake Center
Mon 05:06:39 PM 42.1381 -110.8792 73° East 509 586 31,000  Level Salt Lake Center
Mon 05:07:40 PM 42.1836 -110.6756 73° East 509 586 31,000  Level Salt Lake Center
Mon 05:08:42 PM 42.2233 -110.4997 73° East 511 588 31,000  Level Salt Lake Center
Mon 05:09:44 PM 42.2678 -110.2936 74° East 511 588 31,000  Level Salt Lake Center
Mon 05:10:45 PM 42.3064 -110.1169 73° East 512 589 31,000  Level Salt Lake Center
Mon 05:11:47 PM 42.3506 -109.9139 74° East 507 583 31,000 -48 Level Salt Lake Center
Mon 05:12:49 PM 42.3867 -109.7414 74° East 501 577 30,900  Descending Salt Lake Center
Mon 05:13:50 PM 42.4247 -109.5678 73° East 500 575 31,000 49 Climbing Salt Lake Center
Mon 05:14:52 PM 42.4672 -109.3661 74° East 499 574 31,000  Level Salt Lake Center
Mon 05:15:54 PM 42.5036 -109.1939 74° East 497 572 31,000  Level Salt Lake Center
Mon 05:16:55 PM 42.5453 -108.9894 74° East 501 577 31,000  Level Salt Lake Center
Mon 05:17:57 PM 42.5811 -108.8172 74° East 498 573 31,000  Level Salt Lake Center
Mon 05:18:59 PM 42.6158 -108.6442 75° East 497 572 31,000  Level Salt Lake Center
Mon 05:20:01 PM 42.6564 -108.4431 75° East 494 568 31,000  Level Salt Lake Center
Mon 05:21:02 PM 42.6906 -108.2700 75° East 494 568 31,000  Level Salt Lake Center
Mon 05:22:04 PM 42.7311 -108.0681 75° East 495 570 31,000  Level Salt Lake Center
Mon 05:23:06 PM 42.7653 -107.8942 75° East 497 572 31,000  Level Salt Lake Center
Mon 05:24:08 PM 42.8039 -107.6906 75° East 498 573 31,000  Level Salt Lake Center
Mon 05:25:10 PM 42.8378 -107.5192 75° East 493 567 31,000  Level Salt Lake Center
Mon 05:26:12 PM 42.8761 -107.3153 76° East 495 570 31,000  Level Salt Lake Center
Mon 05:27:13 PM 42.9092 -107.1419 75° East 494 568 31,000  Level Salt Lake Center
Mon 05:28:15 PM 42.9475 -106.9569 74° East 492 566 31,000 432 Level Salt Lake Center
Mon 05:29:18 PM 43.0114 -106.8033 60° Northeast 483 556 31,900 1,008 Climbing Salt Lake Center
Mon 05:30:20 PM 43.0806 -106.6258 62° Northeast 476 548 33,100 927 Climbing Salt Lake Center
Mon 05:31:21 PM 43.1392 -106.4739 62° Northeast 472 543 33,800 488 Climbing Salt Lake Center
Mon 05:32:23 PM 43.2119 -106.2961 61° Northeast 476 548 34,100 397 Climbing Salt Lake Center
Mon 05:33:37 PM 43.2872 -106.1183 60° Northeast 481 554 34,700 397 Climbing Denver Center
Mon 05:34:39 PM 43.3594 -105.9350 62° Northeast 487 560 35,000 145 Climbing Denver Center
Mon 05:35:41 PM 43.4083 -105.7681 68° East 491 565 35,000  Level Denver Center
Mon 05:36:43 PM 43.4614 -105.5725 69° East 489 563 35,000  Level Denver Center
Mon 05:37:44 PM 43.5072 -105.4047 69° East 489 563 35,000  Level Denver Center
Mon 05:38:46 PM 43.5936 -105.2328 55° Northeast 489 563 35,000  Level Denver Center
Mon 05:39:48 PM 43.6769 -105.0975 50° Northeast 486 559 35,000  Level Denver Center
Mon 05:40:50 PM 43.7589 -104.9606 50° Northeast 484 557 35,000  Level Denver Center
Mon 05:41:52 PM 43.8497 -104.7947 53° Northeast 481 554 35,000  Level Denver Center
Mon 05:42:54 PM 43.9183 -104.6414 58° Northeast 483 556 35,000  Level Denver Center
Mon 05:43:55 PM 43.9969 -104.4578 59° Northeast 488 562 35,000  Level Denver Center
Mon 05:44:57 PM 44.0853 -104.3231 48° Northeast 491 565 35,000  Level Denver Center
Mon 05:45:59 PM 44.1858 -104.1692 48° Northeast 484 557 35,000 -44 Level Denver Center
Mon 05:47:13 PM 44.2711 -104.0356 48° Northeast 483 556 34,900  Descending Denver Center
Mon 05:48:15 PM 44.3869 -103.8525 48° Northeast 491 565 35,000 44 Climbing Denver Center
Mon 05:49:28 PM 44.4617 -103.6997 56° Northeast 495 570 35,000  Level Denver Center
Mon 05:50:31 PM 44.5522 -103.5164 55° Northeast 493 567 35,000  Level Denver Center
Mon 05:51:32 PM 44.6147 -103.3475 62° Northeast 492 566 35,000  Level Denver Center
Mon 05:52:34 PM 44.6242 -103.1242 87° East 482 555 35,000  Level Denver Center
Mon 05:53:36 PM 44.6264 -102.9372 89° East 480 552 35,000 -49 Level Denver Center
Mon 05:54:37 PM 44.6283 -102.7881 89° East 480 552 34,900  Descending Denver Center
Mon 05:55:39 PM 44.6308 -102.5611 89° East 484 557 35,000 49 Climbing Denver Center
Mon 05:56:40 PM 44.6331 -102.3711 89° East 487 560 35,000  Level Denver Center
Mon 05:57:42 PM 44.6342 -102.1797 89° East 489 563 35,000  Level Denver Center
Mon 05:58:13 PM 44.6339 -102.0647 90° East 489 563 35,000  Level Minneapolis Center
Mon 05:59:15 PM 44.6347 -101.8739 90° East 490 564 35,000  Level Minneapolis Center
Mon 06:00:17 PM 44.6356 -101.6842 90° East 489 563 35,000  Level Minneapolis Center
Mon 06:01:19 PM 44.6364 -101.4928 90° East 490 564 35,000  Level Minneapolis Center
Mon 06:02:21 PM 44.6364 -101.3028 90° East 490 564 35,000  Level Minneapolis Center
Mon 06:03:23 PM 44.6361 -101.0764 90° East 487 560 35,000  Level Minneapolis Center
Mon 06:04:25 PM 44.6353 -100.8872 90° East 487 560 35,000  Level Minneapolis Center
Mon 06:05:26 PM 44.6339 -100.6978 91° East 487 560 35,000  Level Minneapolis Center
Mon 06:06:28 PM 44.6322 -100.5081 91° East 489 563 35,000  Level Minneapolis Center
Mon 06:07:30 PM 44.6306 -100.3183 91° East 490 564 35,000  Level Minneapolis Center
Mon 06:08:32 PM 44.6294 -100.1286 90° East 490 564 35,000  Level Minneapolis Center
Mon 06:09:33 PM 44.6267 -99.9028 91° East 489 563 35,000  Level Minneapolis Center
Mon 06:10:35 PM 44.6239 -99.7161 91° East 487 560 35,000  Level Minneapolis Center
Mon 06:11:37 PM 44.6217 -99.5675 91° East 485 558 35,000  Level Minneapolis Center
Mon 06:12:39 PM 44.6178 -99.3461 91° East 479 551 35,000  Level Minneapolis Center
Mon 06:13:40 PM 44.6158 -99.1600 91° East 480 552 35,000  Level Minneapolis Center
Mon 06:14:42 PM 44.6125 -98.9728 91° East 482 555 35,000  Level Minneapolis Center
Mon 06:15:44 PM 44.6069 -98.7475 92° East 483 556 35,000  Level Minneapolis Center
Mon 06:16:46 PM 44.6025 -98.5606 92° East 482 555 35,000  Level Minneapolis Center
Mon 06:17:47 PM 44.5978 -98.3736 92° East 482 555 35,000  Level Minneapolis Center
Mon 06:18:49 PM 44.5944 -98.1811 91° East 484 557 35,000  Level Minneapolis Center
Mon 06:19:51 PM 44.5883 -97.9942 93° East 483 556 35,000  Level Minneapolis Center
Mon 06:20:53 PM 44.5822 -97.8061 93° East 483 556 35,000  Level Minneapolis Center
Mon 06:21:55 PM 44.5767 -97.6186 92° East 483 556 35,000  Level Minneapolis Center
Mon 06:22:56 PM 44.5681 -97.3936 93° East 483 556 35,000  Level Minneapolis Center
Mon 06:23:58 PM 44.5614 -97.2050 93° East 485 558 35,000 -242 Level Minneapolis Center
Mon 06:25:00 PM 44.5547 -97.0139 93° East 490 564 34,500 -1,210 Descending Minneapolis Center
Mon 06:26:02 PM 44.5467 -96.8272 93° East 483 556 32,500 -1,452 Descending Minneapolis Center
Mon 06:27:04 PM 44.5394 -96.6389 93° East 482 555 31,500 -732 Descending Minneapolis Center
Mon 06:28:05 PM 44.5314 -96.4486 93° East 486 559 31,000 -488 Descending Minneapolis Center
Mon 06:29:07 PM 44.5236 -96.2589 93° East 485 558 30,500 -484 Descending Minneapolis Center
Mon 06:30:09 PM 44.5156 -96.0675 93° East 487 560 30,000 -484 Descending Minneapolis Center
Mon 06:31:11 PM 44.5061 -95.8767 94° East 488 562 29,500 -532 Descending Minneapolis Center
Mon 06:32:13 PM 44.4953 -95.6506 94° East 484 557 28,900 -532 Descending Minneapolis Center
Mon 06:33:15 PM 44.4858 -95.4664 94° East 475 547 28,400 -1,355 Descending Minneapolis Center
Mon 06:34:17 PM 44.4989 -95.2867 84° East 468 539 26,100 -2,274 Descending Minneapolis Center
Mon 06:35:19 PM 44.5289 -95.1150 76° East 457 526 23,700 -2,226 Descending Minneapolis Center
Mon 06:36:21 PM 44.5583 -94.9508 76° East 442 509 21,500 -2,146 Descending Minneapolis Center
Mon 06:37:22 PM 44.5864 -94.7911 76° East 428 493 19,300 -2,341 Descending Minneapolis Center
Mon 06:38:24 PM 44.6175 -94.6128 76° East 412 474 16,700 -2,274 Descending Minneapolis Center
Mon 06:39:26 PM 44.6411 -94.4656 77° East 387 445 14,600 -2,081 Descending Minneapolis Center
Mon 06:40:28 PM 44.6658 -94.3244 76° East 375 432 12,400 -1,742 Descending Minneapolis Center
Mon 06:41:30 PM 44.6894 -94.1872 76° East 364 419 11,000 -726 Descending Minneapolis Center
Mon 06:42:32 PM 44.7161 -94.0536 74° East 358 412 10,900 -290 Descending Minneapolis Center
Mon 06:43:34 PM 44.7614 -93.9428 60° Northeast 320 368 10,400 -1,065 Descending Minneapolis Center
Mon 06:44:36 PM 44.8194 -93.8333 53° Northeast 290 334 8,700 -1,597 Descending Minneapolis Center
Mon 06:45:38 PM 44.8681 -93.7419 53° Northeast 290 334 7,100 -1,065 Descending Minneapolis Center
Mon 06:46:40 PM 44.9172 -93.6494 53° Northeast 293 337 6,500 -1,065 Descending Minneapolis Center
Mon 06:47:42 PM 44.9625 -93.5531 56° Northeast 296 341 4,900 -1,317 Descending Minneapolis Center
Mon 06:48:43 PM 44.9544 -93.4467 96° East 272 313 3,800 -1,082 Descending Minneapolis Center

Login

Don't have an account? Register now (free) for customized features, flight alerts, and more!